Floweree, MT (59440)

1:13 PM MST on December 03, 2016 (GMT -0700)
East of Bootlegger Trail and Floweree Road | | Change Station

Elev 3629 ft 47.75 °N, 111.27 °W | Updated 20 seconds ago

Scattered Clouds
Scattered Clouds
43.0 °F
Feels Like 34 °F
N
20.8
Wind Variable Wind from West
Gusts 24.8 mph

Today
High -- | Low -- °F
--% Chance of Precip.
Yesterday
High -- | Low -- °F
Precip. -- in
Pressure 29.99 in
Visibility 10.0 miles
Clouds Scattered Clouds 10000 ft
Windchill 34 °F
Dew Point 16 °F
Humidity 33%
Rainfall 0.00 in
Snow Depth Not available.
7:54 AM 4:33 PM
Waxing Crescent, 17% visible
METAR KGFA 031958Z AUTO 26013G22KT 10SM SCT100 05/M05 A2990 RMK AO2 PK WND 27027/27 SLP153 T00521053 TSNO $
Pressure 29.99 in
Visibility 10.0 miles
Clouds Scattered Clouds 10000 ft
Windchill 34 °F
Dew Point 16 °F
Humidity 33%
Rainfall 0.00 in
Snow Depth Not available.
7:54 AM 4:33 PM
Waxing Crescent, 17% visible
METAR KGFA 031958Z AUTO 26013G22KT 10SM SCT100 05/M05 A2990 RMK AO2 PK WND 27027/27 SLP153 T00521053 TSNO $

10-Day Weather Forecast

Almanac

Astronomy

Dec. 03, 2016 Rise Set
Actual Time
Civil Twilight
Nautical Twilight
Astronomical Twilight
Moon
Length of Visible Light
Length of Day
Tomorrow will be .
, % of the Moon is Illuminated

Today's Extremes

State Highs State Lows

Community

WunderPhotos

Upload Photos

1,955,486 photos uploaded!

WunderBlog® & News

Nearby

Air Quality

  Air Quality AQ Index Pollutant
Not available.

Snow Depth

Station Depth Elevation

Earthquake Activity

City Distance Mag. Time & Date
Minimum magnitude displayed is 2.5.

Coastal Water Temperatures

Place Temperature

Stations

Nearby Weather Stations

Station Location Temp. Windchill Dew Point Humidity Wind Precip. Elev Updated Type
                   

Watches & Warnings

There are currently no watches in effect.